logo
Search for airport 
image banner adimage banner adimage banner ad
image banner ad

EGSE02 - Banbury

Located in , United Kingdom

ICAO - , IATA -

Data provided by Airmate  

General information

Coordinates: N52°5'57" W1°22'48"
Elevation is 525 feet MSL.
 
View others Airports in England

Operational data

Special qualification required
Current time UTC:
Current local time:
Weather at : EGTK - Oxford/Kidlington ( 29 km )
TAF: TAF EGTK 050652Z 0506/0515 36007KT CAVOK
View NOTAMs / SUP AIP / TFR affecting this airport [VIEW]
Communications frequencies: [VIEW]

Runways:

RWY identifierQFULength (ft)Width (ft)SurfaceLDA (ft)
0795859GRASS
2595859GRASS
15225759GRASS
33225759GRASS

Airport contact information

Address: United Kingdom

Satellite view of EGSE02